Time;durP1;ratioP1;P1;durP2;ratioP2;P2;SDS_P1;SDS_P2;PMS_P1;PMS_P2;Temp;Humidity;BMP_temperature;BMP_pressure;BME280_temperature;BME280_humidity;BME280_pressure;Samples;Min_cycle;Max_cycle;Signal;HPM_P1;HPM_P2
2020/12/08 00:00:20;;;;;;;37.42;21.27;;;;;;;;;;4822147;29;20057;-70
2020/12/08 00:02:46;;;;;;;39.58;21.20;;;;;;;;;;4822969;29;20094;-70
2020/12/08 00:05:14;;;;;;;39.55;20.50;;;;;;;;;;4821907;29;20039;-70
2020/12/08 00:07:41;;;;;;;41.42;22.13;;;;;;;;;;4821100;29;20097;-70
2020/12/08 00:10:07;;;;;;;42.20;21.30;;;;;;;;;;4822895;29;20042;-70
2020/12/08 00:12:33;;;;;;;38.40;17.85;;;;;;;;;;4822598;29;20134;-70
2020/12/08 00:14:59;;;;;;;45.83;22.77;;;;;;;;;;4822384;29;20042;-70
2020/12/08 00:17:26;;;;;;;42.53;23.17;;;;;;;;;;4823005;29;20441;-70
2020/12/08 00:19:52;;;;;;;41.92;23.35;;;;;;;;;;4822355;29;20058;-70
2020/12/08 00:22:18;;;;;;;47.33;23.70;;;;;;;;;;4822811;29;20099;-70
2020/12/08 00:24:45;;;;;;;44.85;21.83;;;;;;;;;;4822369;29;20069;-70
2020/12/08 00:27:11;;;;;;;45.50;21.95;;;;;;;;;;4822119;29;20165;-70
2020/12/08 00:29:39;;;;;;;47.42;23.90;;;;;;;;;;4821103;29;20511;-70
2020/12/08 00:32:06;;;;;;;48.00;21.77;;;;;;;;;;4822354;29;20420;-70
2020/12/08 00:34:33;;;;;;;42.53;23.35;;;;;;;;;;4821595;29;20065;-70
2020/12/08 00:36:59;;;;;;;43.10;22.20;;;;;;;;;;4820283;29;20046;-70
2020/12/08 00:39:25;;;;;;;42.53;22.85;;;;;;;;;;4821379;29;20123;-70
2020/12/08 00:41:51;;;;;;;47.78;23.80;;;;;;;;;;4821685;29;20046;-70
2020/12/08 00:44:18;;;;;;;44.05;24.30;;;;;;;;;;4820230;29;20042;-70
2020/12/08 00:46:48;;;;;;;44.05;22.48;;;;;;;;;;4820862;29;20407;-70
2020/12/08 00:49:15;;;;;;;45.42;21.95;;;;;;;;;;4832264;29;20046;-70
2020/12/08 00:51:41;;;;;;;44.65;20.95;;;;;;;;;;4821642;29;20522;-70
2020/12/08 00:54:07;;;;;;;41.38;22.40;;;;;;;;;;4822506;29;20044;-70
2020/12/08 00:56:34;;;;;;;42.92;22.08;;;;;;;;;;4821926;29;20061;-70
2020/12/08 00:59:02;;;;;;;45.13;21.77;;;;;;;;;;4821752;29;20046;-70
2020/12/08 01:01:29;;;;;;;46.55;22.73;;;;;;;;;;4828871;29;20270;-70
2020/12/08 01:03:59;;;;;;;46.00;23.35;;;;;;;;;;4820865;29;20051;-70
2020/12/08 01:06:27;;;;;;;40.78;22.40;;;;;;;;;;4820314;29;20054;-70
2020/12/08 01:08:54;;;;;;;44.28;21.80;;;;;;;;;;4835853;29;20415;-70
2020/12/08 01:11:21;;;;;;;42.72;22.30;;;;;;;;;;4821207;29;20470;-70
2020/12/08 01:13:47;;;;;;;47.47;23.47;;;;;;;;;;4820725;29;20070;-70
2020/12/08 01:16:22;;;;;;;45.05;21.23;;;;;;;;;;4815484;29;20042;-70
2020/12/08 01:18:49;;;;;;;46.83;23.40;;;;;;;;;;4821469;29;20050;-70
2020/12/08 01:21:16;;;;;;;44.42;23.02;;;;;;;;;;4822216;29;20200;-70
2020/12/08 01:23:45;;;;;;;45.67;22.17;;;;;;;;;;4820290;29;20047;-70
2020/12/08 01:26:12;;;;;;;;;;;;;;;;;;4821502;29;20569;-70
2020/12/08 01:28:39;;;;;;;40.95;19.65;;;;;;;;;;4820357;29;19924;-70
2020/12/08 01:31:05;;;;;;;47.83;23.08;;;;;;;;;;4822347;29;20046;-70
2020/12/08 01:33:32;;;;;;;45.35;23.65;;;;;;;;;;4821676;29;20073;-70
2020/12/08 01:35:58;;;;;;;50.08;24.45;;;;;;;;;;4819776;29;20042;-70
2020/12/08 01:38:25;;;;;;;47.47;24.13;;;;;;;;;;4820591;29;20050;-70
2020/12/08 01:40:55;;;;;;;49.10;24.30;;;;;;;;;;4822050;29;20064;-70
2020/12/08 01:43:24;;;;;;;51.78;24.65;;;;;;;;;;4820871;29;20523;-70
2020/12/08 01:45:50;;;;;;;52.85;24.67;;;;;;;;;;4819622;29;20050;-70
2020/12/08 01:48:17;;;;;;;50.95;25.27;;;;;;;;;;4819894;29;20122;-70
2020/12/08 01:50:44;;;;;;;49.35;23.88;;;;;;;;;;4821845;29;20237;-70
2020/12/08 01:53:11;;;;;;;52.03;25.08;;;;;;;;;;4820464;29;20099;-70
2020/12/08 01:55:40;;;;;;;48.75;24.08;;;;;;;;;;4820374;29;20501;-70
2020/12/08 01:58:14;;;;;;;51.22;23.17;;;;;;;;;;4821003;29;20060;-70
2020/12/08 02:00:42;;;;;;;55.00;24.55;;;;;;;;;;4834645;29;20070;-70
2020/12/08 02:03:08;;;;;;;49.15;25.73;;;;;;;;;;4835334;29;20082;-70
2020/12/08 02:05:39;;;;;;;53.78;25.15;;;;;;;;;;4819958;29;20091;-70
2020/12/08 02:08:06;;;;;;;58.80;26.30;;;;;;;;;;4820844;29;20456;-70
2020/12/08 02:10:36;;;;;;;57.00;26.42;;;;;;;;;;4819613;29;20054;-70
2020/12/08 02:13:07;;;;;;;61.40;27.30;;;;;;;;;;4820145;29;20096;-70
2020/12/08 02:15:35;;;;;;;53.30;25.60;;;;;;;;;;4817758;29;20039;-70
2020/12/08 02:18:03;;;;;;;48.80;25.08;;;;;;;;;;4819008;29;20107;-70
2020/12/08 02:20:32;;;;;;;46.60;25.25;;;;;;;;;;4821920;29;20046;-70
2020/12/08 02:23:00;;;;;;;51.47;24.48;;;;;;;;;;4820078;29;20050;-70
2020/12/08 02:25:29;;;;;;;49.80;24.65;;;;;;;;;;4827320;29;20050;-70
2020/12/08 02:27:57;;;;;;;53.88;22.42;;;;;;;;;;4819098;29;20051;-70
2020/12/08 02:30:24;;;;;;;52.40;26.05;;;;;;;;;;4823692;29;20054;-70
2020/12/08 02:32:51;;;;;;;45.88;25.52;;;;;;;;;;4837331;29;20058;-70
2020/12/08 02:35:17;;;;;;;50.60;23.08;;;;;;;;;;4823397;29;20123;-70
2020/12/08 02:37:44;;;;;;;52.63;25.75;;;;;;;;;;4824097;29;20111;-70
2020/12/08 02:40:10;;;;;;;53.70;24.45;;;;;;;;;;4824169;29;20061;-70
2020/12/08 02:42:40;;;;;;;55.95;27.25;;;;;;;;;;4823842;29;20042;-70
2020/12/08 02:45:06;;;;;;;56.60;24.75;;;;;;;;;;4824390;29;20039;-70
2020/12/08 02:47:33;;;;;;;54.47;25.42;;;;;;;;;;4822987;29;20054;-70
2020/12/08 02:50:01;;;;;;;50.83;26.33;;;;;;;;;;4820065;29;20538;-70
2020/12/08 02:52:29;;;;;;;51.80;25.98;;;;;;;;;;4822294;29;20054;-70
2020/12/08 02:54:55;;;;;;;51.88;25.88;;;;;;;;;;4823728;29;20506;-70
2020/12/08 02:57:21;;;;;;;52.40;25.50;;;;;;;;;;4821468;29;20506;-70
2020/12/08 02:59:48;;;;;;;49.92;25.08;;;;;;;;;;4820257;29;20126;-70
2020/12/08 03:02:20;;;;;;;51.72;25.92;;;;;;;;;;4821073;29;20055;-70
2020/12/08 03:04:49;;;;;;;47.28;24.92;;;;;;;;;;4823081;29;20046;-70
2020/12/08 03:07:18;;;;;;;54.72;25.98;;;;;;;;;;4822624;29;20058;-70
2020/12/08 03:09:46;;;;;;;47.15;24.50;;;;;;;;;;4822840;29;20102;-70
2020/12/08 03:12:13;;;;;;;46.58;23.67;;;;;;;;;;4825581;29;20574;-70
2020/12/08 03:14:43;;;;;;;52.17;25.65;;;;;;;;;;4822821;29;20065;-70
2020/12/08 03:17:16;;;;;;;48.50;24.48;;;;;;;;;;4822191;29;20115;-70
2020/12/08 03:19:42;;;;;;;51.40;26.30;;;;;;;;;;4824093;29;20053;-70
2020/12/08 03:22:09;;;;;;;46.90;22.73;;;;;;;;;;4822961;29;20462;-70
2020/12/08 03:24:43;;;;;;;50.40;25.58;;;;;;;;;;4822690;29;20061;-70
2020/12/08 03:27:11;;;;;;;46.55;23.33;;;;;;;;;;4833545;29;20050;-70
2020/12/08 03:29:38;;;;;;;50.33;25.52;;;;;;;;;;4822852;29;20141;-70
2020/12/08 03:32:09;;;;;;;45.88;23.15;;;;;;;;;;4821082;29;20054;-70
2020/12/08 03:34:36;;;;;;;48.17;25.15;;;;;;;;;;4822233;29;20073;-70
2020/12/08 03:37:04;;;;;;;44.45;23.58;;;;;;;;;;4826751;29;20042;-70
2020/12/08 03:39:31;;;;;;;45.95;23.60;;;;;;;;;;4820438;29;20046;-70
2020/12/08 03:42:02;;;;;;;48.03;24.48;;;;;;;;;;4822578;29;20046;-70
2020/12/08 03:44:31;;;;;;;47.40;25.38;;;;;;;;;;4823488;29;20408;-70
2020/12/08 03:47:05;;;;;;;46.35;24.15;;;;;;;;;;4821268;29;20051;-70
2020/12/08 03:49:34;;;;;;;45.70;24.75;;;;;;;;;;4821817;29;20057;-70
2020/12/08 03:52:03;;;;;;;48.95;25.05;;;;;;;;;;4805696;29;20107;-70
2020/12/08 03:54:29;;;;;;;46.80;24.70;;;;;;;;;;4826331;29;20046;-70
2020/12/08 03:56:56;;;;;;;48.05;24.48;;;;;;;;;;4822041;29;20051;-70
2020/12/08 03:59:24;;;;;;;45.92;24.67;;;;;;;;;;4820197;29;20093;-70
2020/12/08 04:02:00;;;;;;;43.80;23.85;;;;;;;;;;4821570;29;20054;-70
2020/12/08 04:04:27;;;;;;;49.38;24.55;;;;;;;;;;4822163;29;20434;-70
2020/12/08 04:06:53;;;;;;;51.45;24.77;;;;;;;;;;4821588;29;20054;-70
2020/12/08 04:09:19;;;;;;;44.63;23.23;;;;;;;;;;4819659;29;20043;-70
2020/12/08 04:11:46;;;;;;;49.92;25.30;;;;;;;;;;4821351;29;20085;-70
2020/12/08 04:14:14;;;;;;;43.55;24.33;;;;;;;;;;4816972;29;20133;-70
2020/12/08 04:16:43;;;;;;;53.45;25.50;;;;;;;;;;4822908;29;20265;-70
2020/12/08 04:19:16;;;;;;;49.38;24.05;;;;;;;;;;4822449;29;20058;-70
2020/12/08 04:21:44;;;;;;;48.45;24.35;;;;;;;;;;4821149;29;20052;-70
2020/12/08 04:24:19;;;;;;;51.80;25.02;;;;;;;;;;4821696;29;20054;-70
2020/12/08 04:26:45;;;;;;;44.35;24.38;;;;;;;;;;4822984;29;20050;-70
2020/12/08 04:29:19;;;;;;;45.03;23.70;;;;;;;;;;4820329;29;20051;-70
2020/12/08 04:31:50;;;;;;;49.83;24.50;;;;;;;;;;4821515;29;20077;-70
2020/12/08 04:34:16;;;;;;;51.47;24.90;;;;;;;;;;4822349;29;20449;-71
2020/12/08 04:36:47;;;;;;;50.83;23.40;;;;;;;;;;4822836;29;20403;-70
2020/12/08 04:39:13;;;;;;;44.13;21.95;;;;;;;;;;4822774;29;20050;-70
2020/12/08 04:41:39;;;;;;;48.13;23.70;;;;;;;;;;4823119;29;20065;-71
2020/12/08 04:44:05;;;;;;;47.38;24.45;;;;;;;;;;4819177;29;20125;-69
2020/12/08 04:46:32;;;;;;;47.45;22.73;;;;;;;;;;4820560;29;20083;-70
2020/12/08 04:48:59;;;;;;;44.33;23.30;;;;;;;;;;4821235;29;20053;-70
2020/12/08 04:51:25;;;;;;;47.40;23.87;;;;;;;;;;4821038;29;20043;-70
2020/12/08 04:53:52;;;;;;;44.38;23.80;;;;;;;;;;4821527;29;20050;-70
2020/12/08 04:56:20;;;;;;;50.40;24.90;;;;;;;;;;4822542;29;20084;-70
2020/12/08 04:58:46;;;;;;;47.95;24.27;;;;;;;;;;4822557;29;20057;-70
2020/12/08 05:01:23;;;;;;;46.45;22.70;;;;;;;;;;4819893;29;20039;-70
2020/12/08 05:03:57;;;;;;;49.10;24.15;;;;;;;;;;4819922;29;20048;-70
2020/12/08 05:06:24;;;;;;;46.22;23.85;;;;;;;;;;4821295;29;20694;-70
2020/12/08 05:08:59;;;;;;;52.15;23.80;;;;;;;;;;4818678;29;20051;-70
2020/12/08 05:11:28;;;;;;;43.30;22.20;;;;;;;;;;4819340;29;20042;-70
2020/12/08 05:14:06;;;;;;;45.85;23.35;;;;;;;;;;4822075;29;20130;-70
2020/12/08 05:16:33;;;;;;;49.22;23.83;;;;;;;;;;4819573;29;20080;-70
2020/12/08 05:19:05;;;;;;;47.60;25.15;;;;;;;;;;4821228;29;20053;-70
2020/12/08 05:21:31;;;;;;;51.85;24.70;;;;;;;;;;4823020;29;20046;-70
2020/12/08 05:23:58;;;;;;;51.58;24.25;;;;;;;;;;4821512;29;20034;-70
2020/12/08 05:26:24;;;;;;;48.47;24.30;;;;;;;;;;4821740;29;20054;-70
2020/12/08 05:28:57;;;;;;;53.63;25.17;;;;;;;;;;4821037;29;20065;-70
2020/12/08 05:31:26;;;;;;;50.47;24.88;;;;;;;;;;4820486;29;20544;-70
2020/12/08 05:33:57;;;;;;;49.42;24.15;;;;;;;;;;4821399;29;20046;-70
2020/12/08 05:36:23;;;;;;;55.05;24.92;;;;;;;;;;4820371;29;20050;-70
2020/12/08 05:38:50;;;;;;;52.30;26.38;;;;;;;;;;4819009;29;20488;-70
2020/12/08 05:41:17;;;;;;;54.30;26.08;;;;;;;;;;4820088;29;20046;-70
2020/12/08 05:43:43;;;;;;;51.22;26.58;;;;;;;;;;4822187;29;20549;-70
2020/12/08 05:46:10;;;;;;;58.25;25.05;;;;;;;;;;4820632;29;20042;-69
2020/12/08 05:48:36;;;;;;;51.53;27.25;;;;;;;;;;4821455;29;20392;-70
2020/12/08 05:51:05;;;;;;;59.83;28.40;;;;;;;;;;4821780;29;20053;-70
2020/12/08 05:53:32;;;;;;;55.22;26.17;;;;;;;;;;4820892;29;20053;-70
2020/12/08 05:56:04;;;;;;;55.22;26.75;;;;;;;;;;4824006;29;20058;-70
2020/12/08 05:58:30;;;;;;;60.03;27.15;;;;;;;;;;4820455;29;20080;-70
2020/12/08 06:01:01;;;;;;;58.28;27.08;;;;;;;;;;4821009;29;20105;-70
2020/12/08 06:03:27;;;;;;;56.28;25.27;;;;;;;;;;4821338;29;20057;-70
2020/12/08 06:06:03;;;;;;;59.20;27.25;;;;;;;;;;4821390;29;20053;-69
2020/12/08 06:08:40;;;;;;;58.05;28.35;;;;;;;;;;4820805;29;20050;-70
2020/12/08 06:11:06;;;;;;;62.17;28.77;;;;;;;;;;4818991;29;20049;-70
2020/12/08 06:13:32;;;;;;;58.28;27.70;;;;;;;;;;4821438;29;20054;-70
2020/12/08 06:15:59;;;;;;;61.63;29.17;;;;;;;;;;4821705;29;20125;-70
2020/12/08 06:18:31;;;;;;;60.10;25.98;;;;;;;;;;4821777;29;20114;-70
2020/12/08 06:20:59;;;;;;;60.70;27.58;;;;;;;;;;4817958;29;20053;-70
2020/12/08 06:23:25;;;;;;;57.67;27.60;;;;;;;;;;4819088;29;20050;-70
2020/12/08 06:25:57;;;;;;;56.95;27.30;;;;;;;;;;4820252;29;20107;-70
2020/12/08 06:28:23;;;;;;;61.67;27.75;;;;;;;;;;4823163;29;20111;-70
2020/12/08 06:30:59;;;;;;;55.03;27.73;;;;;;;;;;4820823;29;20059;-70
2020/12/08 06:33:25;;;;;;;54.88;26.27;;;;;;;;;;4821501;29;20383;-70
2020/12/08 06:35:57;;;;;;;53.38;27.08;;;;;;;;;;4820675;29;20042;-70
2020/12/08 06:38:23;;;;;;;58.10;26.35;;;;;;;;;;4820704;29;20537;-70
2020/12/08 06:40:50;;;;;;;61.33;26.52;;;;;;;;;;4822031;29;20376;-70
2020/12/08 06:43:17;;;;;;;53.35;27.33;;;;;;;;;;4824269;29;20053;-70
2020/12/08 06:45:43;;;;;;;57.30;27.10;;;;;;;;;;4823966;29;20038;-70
2020/12/08 06:48:17;;;;;;;62.53;25.65;;;;;;;;;;4820561;29;20054;-70
2020/12/08 06:50:43;;;;;;;56.55;26.58;;;;;;;;;;4820932;29;20060;-70
2020/12/08 06:53:10;;;;;;;52.97;25.77;;;;;;;;;;4821395;29;20117;-70
2020/12/08 06:55:47;;;;;;;53.60;25.67;;;;;;;;;;4820962;29;20103;-70
2020/12/08 06:58:14;;;;;;;58.63;26.03;;;;;;;;;;4820206;29;20054;-72
2020/12/08 07:00:41;;;;;;;60.30;25.77;;;;;;;;;;4819365;29;20326;-70
2020/12/08 07:03:07;;;;;;;51.53;24.92;;;;;;;;;;4820591;29;20055;-70
2020/12/08 07:05:34;;;;;;;52.53;25.77;;;;;;;;;;4824440;29;20050;-70
2020/12/08 07:08:01;;;;;;;53.80;24.17;;;;;;;;;;4820120;29;20050;-70
2020/12/08 07:10:27;;;;;;;54.20;24.48;;;;;;;;;;4820002;29;20397;-71
2020/12/08 07:12:54;;;;;;;52.90;25.60;;;;;;;;;;4819920;29;20056;-70
2020/12/08 07:15:25;;;;;;;50.92;23.33;;;;;;;;;;4823335;29;20078;-70
2020/12/08 07:17:58;;;;;;;47.90;23.80;;;;;;;;;;4824789;29;20057;-70
2020/12/08 07:20:25;;;;;;;53.13;23.30;;;;;;;;;;4821959;29;20050;-70
2020/12/08 07:22:52;;;;;;;53.03;24.27;;;;;;;;;;4823683;29;20054;-70
2020/12/08 07:25:18;;;;;;;45.40;22.13;;;;;;;;;;4824386;29;20039;-70
2020/12/08 07:27:47;;;;;;;49.60;22.45;;;;;;;;;;4824607;29;20046;-70
2020/12/08 07:30:14;;;;;;;40.60;21.63;;;;;;;;;;4824970;29;20058;-70
2020/12/08 07:32:40;;;;;;;43.28;21.95;;;;;;;;;;4823417;29;20050;-70
2020/12/08 07:35:18;;;;;;;43.15;20.90;;;;;;;;;;4824416;29;20546;-70
2020/12/08 07:37:44;;;;;;;49.80;22.40;;;;;;;;;;4823538;29;20111;-70
2020/12/08 07:40:12;;;;;;;44.67;22.37;;;;;;;;;;4825784;29;20066;-69
2020/12/08 07:42:44;;;;;;;48.38;21.05;;;;;;;;;;4819328;29;20560;-69
2020/12/08 07:45:11;;;;;;;52.50;21.90;;;;;;;;;;4822364;29;20099;-68
2020/12/08 07:47:37;;;;;;;46.85;19.27;;;;;;;;;;4823691;29;20099;-68
2020/12/08 07:50:04;;;;;;;49.95;22.10;;;;;;;;;;4825442;29;20046;-68
2020/12/08 07:52:30;;;;;;;47.90;22.93;;;;;;;;;;4823870;29;20057;-68
2020/12/08 07:54:56;;;;;;;51.85;23.70;;;;;;;;;;4823503;29;20291;-68
2020/12/08 07:57:23;;;;;;;50.30;23.55;;;;;;;;;;4821765;29;20062;-68
2020/12/08 07:59:49;;;;;;;49.30;22.40;;;;;;;;;;4821159;29;20051;-68
2020/12/08 08:02:15;;;;;;;52.58;24.08;;;;;;;;;;4823153;29;20058;-67
2020/12/08 08:04:42;;;;;;;54.55;23.98;;;;;;;;;;4819499;29;20103;-68
2020/12/08 08:07:08;;;;;;;49.42;24.65;;;;;;;;;;4821507;29;20046;-68
2020/12/08 08:09:34;;;;;;;47.97;23.60;;;;;;;;;;4823678;29;20419;-68
2020/12/08 08:12:01;;;;;;;56.50;24.92;;;;;;;;;;4822445;29;20326;-68
2020/12/08 08:14:27;;;;;;;55.53;25.23;;;;;;;;;;4823539;29;20046;-68
2020/12/08 08:17:03;;;;;;;53.28;23.00;;;;;;;;;;4821898;29;20057;-68
2020/12/08 08:19:29;;;;;;;55.63;24.48;;;;;;;;;;4823554;29;20057;-68
2020/12/08 08:21:56;;;;;;;53.10;22.70;;;;;;;;;;4823467;29;20057;-68
2020/12/08 08:24:22;;;;;;;53.15;25.25;;;;;;;;;;4823489;29;20133;-68
2020/12/08 08:26:48;;;;;;;39.78;16.75;;;;;;;;;;4822265;29;20038;-68
2020/12/08 08:29:15;;;;;;;61.15;23.77;;;;;;;;;;4820012;29;20434;-68
2020/12/08 08:31:41;;;;;;;44.10;21.25;;;;;;;;;;4822108;29;20069;-68
2020/12/08 08:34:07;;;;;;;41.13;16.92;;;;;;;;;;4823278;29;20061;-68
2020/12/08 08:36:33;;;;;;;43.53;18.85;;;;;;;;;;4822695;29;20566;-68
2020/12/08 08:39:00;;;;;;;39.85;18.73;;;;;;;;;;4821387;29;20073;-68
2020/12/08 08:41:26;;;;;;;42.78;17.65;;;;;;;;;;4821788;29;20046;-68
2020/12/08 08:43:52;;;;;;;40.33;19.75;;;;;;;;;;4821814;29;20050;-68
2020/12/08 08:46:18;;;;;;;41.95;19.85;;;;;;;;;;4821716;29;20042;-68
2020/12/08 08:48:45;;;;;;;40.22;19.25;;;;;;;;;;4822713;29;20049;-68
2020/12/08 08:51:11;;;;;;;45.83;21.27;;;;;;;;;;4822990;29;20084;-68
2020/12/08 08:53:37;;;;;;;41.50;20.25;;;;;;;;;;4820413;29;20054;-68
2020/12/08 08:56:04;;;;;;;38.65;19.67;;;;;;;;;;4821825;29;20510;-68
2020/12/08 08:58:30;;;;;;;42.30;19.17;;;;;;;;;;4822655;29;20051;-68
2020/12/08 09:00:57;;;;;;;46.45;19.85;;;;;;;;;;4821451;29;20351;-68
2020/12/08 09:03:24;;;;;;;36.85;15.25;;;;;;;;;;4825081;29;20054;-68
2020/12/08 09:05:51;;;;;;;39.33;17.23;;;;;;;;;;4822474;29;20504;-68
2020/12/08 09:08:17;;;;;;;35.03;16.40;;;;;;;;;;4822721;29;20099;-68
2020/12/08 09:10:44;;;;;;;27.13;14.00;;;;;;;;;;4822100;29;20103;-68
2020/12/08 09:13:11;;;;;;;35.65;16.65;;;;;;;;;;4821917;29;20050;-69
2020/12/08 09:15:37;;;;;;;31.70;17.08;;;;;;;;;;4822214;29;20121;-68
2020/12/08 09:18:03;;;;;;;31.48;16.40;;;;;;;;;;4822807;29;20050;-68
2020/12/08 09:20:30;;;;;;;31.98;13.00;;;;;;;;;;4819842;29;20430;-68
2020/12/08 09:22:56;;;;;;;29.52;13.10;;;;;;;;;;4822458;29;20057;-68
2020/12/08 09:25:24;;;;;;;23.10;12.68;;;;;;;;;;4818907;29;20057;-68
2020/12/08 09:27:51;;;;;;;29.75;14.45;;;;;;;;;;4821010;29;20572;-68
2020/12/08 09:30:17;;;;;;;29.27;13.00;;;;;;;;;;4823306;29;20050;-68
2020/12/08 09:32:44;;;;;;;29.67;14.45;;;;;;;;;;4821628;29;20507;-68
2020/12/08 09:35:10;;;;;;;21.98;12.60;;;;;;;;;;4822286;29;20057;-68
2020/12/08 09:37:37;;;;;;;25.92;10.80;;;;;;;;;;4821481;29;20062;-68
2020/12/08 09:40:03;;;;;;;21.65;10.20;;;;;;;;;;4819211;29;20076;-68
2020/12/08 09:42:30;;;;;;;22.17;11.63;;;;;;;;;;4815246;29;20526;-68
2020/12/08 09:44:57;;;;;;;18.77;10.60;;;;;;;;;;4821963;29;20045;-68
2020/12/08 09:47:23;;;;;;;20.42;11.70;;;;;;;;;;4821930;29;20051;-68
2020/12/08 09:49:49;;;;;;;21.40;11.93;;;;;;;;;;4822292;29;20487;-68
2020/12/08 09:52:15;;;;;;;20.60;10.90;;;;;;;;;;4819927;29;20491;-68
2020/12/08 09:54:42;;;;;;;21.13;11.85;;;;;;;;;;4822036;29;20491;-68
2020/12/08 09:57:09;;;;;;;22.23;11.30;;;;;;;;;;4821506;29;20502;-68
2020/12/08 09:59:35;;;;;;;24.30;12.15;;;;;;;;;;4823438;29;20077;-68
2020/12/08 10:02:03;;;;;;;26.05;12.27;;;;;;;;;;4820668;29;20058;-68
2020/12/08 10:04:29;;;;;;;;;;;;;;;;;;4822586;29;20054;-68
2020/12/08 10:06:55;;;;;;;14.43;8.68;;;;;;;;;;4821002;29;19924;-68
2020/12/08 10:09:22;;;;;;;13.60;6.53;;;;;;;;;;4822104;29;20384;-68
2020/12/08 10:11:49;;;;;;;14.18;8.20;;;;;;;;;;4821156;29;20049;-68
2020/12/08 10:14:15;;;;;;;14.07;7.93;;;;;;;;;;4816428;29;20053;-68
2020/12/08 10:16:41;;;;;;;11.75;7.28;;;;;;;;;;4821532;29;20050;-68
2020/12/08 10:19:08;;;;;;;12.27;6.55;;;;;;;;;;4821410;29;20049;-68
2020/12/08 10:21:35;;;;;;;14.18;6.43;;;;;;;;;;4820769;29;20085;-68
2020/12/08 10:24:04;;;;;;;12.82;6.18;;;;;;;;;;4821121;29;20114;-68
2020/12/08 10:26:30;;;;;;;10.95;5.85;;;;;;;;;;4821351;29;20054;-68
2020/12/08 10:28:57;;;;;;;9.82;4.97;;;;;;;;;;4821649;29;20054;-68
2020/12/08 10:31:23;;;;;;;9.43;4.60;;;;;;;;;;4821641;29;20507;-69
2020/12/08 10:33:50;;;;;;;9.15;5.03;;;;;;;;;;4822037;29;20499;-68
2020/12/08 10:36:16;;;;;;;9.65;5.38;;;;;;;;;;4818911;29;20099;-68
2020/12/08 10:38:42;;;;;;;9.10;4.70;;;;;;;;;;4820746;29;20045;-68
2020/12/08 10:41:09;;;;;;;8.90;5.00;;;;;;;;;;4820920;29;20083;-68
2020/12/08 10:43:35;;;;;;;9.40;5.80;;;;;;;;;;4820754;29;20049;-68
2020/12/08 10:46:03;;;;;;;10.43;5.28;;;;;;;;;;4814437;29;20099;-68
2020/12/08 10:48:30;;;;;;;9.05;5.32;;;;;;;;;;4820678;29;20050;-68
2020/12/08 10:50:57;;;;;;;11.40;5.47;;;;;;;;;;4822316;29;20046;-68
2020/12/08 10:53:23;;;;;;;10.50;5.75;;;;;;;;;;4823851;29;20588;-68
2020/12/08 10:55:49;;;;;;;9.68;5.40;;;;;;;;;;4824791;29;20472;-68
2020/12/08 10:58:15;;;;;;;12.88;6.15;;;;;;;;;;4823777;29;20061;-68
2020/12/08 11:00:41;;;;;;;8.32;5.20;;;;;;;;;;4821878;29;20046;-68
2020/12/08 11:03:09;;;;;;;8.45;5.03;;;;;;;;;;4824314;29;20074;-68
2020/12/08 11:05:35;;;;;;;9.55;5.13;;;;;;;;;;4825333;29;20057;-68
2020/12/08 11:08:01;;;;;;;8.38;4.47;;;;;;;;;;4825356;29;20057;-68
2020/12/08 11:10:27;;;;;;;7.53;4.95;;;;;;;;;;4824634;29;20495;-68
2020/12/08 11:12:53;;;;;;;5.97;2.90;;;;;;;;;;4823662;29;20043;-68
2020/12/08 11:15:20;;;;;;;6.67;4.00;;;;;;;;;;4824592;29;20061;-68
2020/12/08 11:17:46;;;;;;;6.53;2.92;;;;;;;;;;4821126;29;20096;-68
2020/12/08 11:20:12;;;;;;;2.95;2.17;;;;;;;;;;4824237;29;20050;-68
2020/12/08 11:22:39;;;;;;;3.90;2.63;;;;;;;;;;4821522;29;20590;-68
2020/12/08 11:25:05;;;;;;;5.25;3.20;;;;;;;;;;4825828;29;20054;-69
2020/12/08 11:27:32;;;;;;;4.18;2.58;;;;;;;;;;4823833;29;20050;-68
2020/12/08 11:29:58;;;;;;;3.78;2.63;;;;;;;;;;4824559;29;20568;-68
2020/12/08 11:32:24;;;;;;;4.70;3.25;;;;;;;;;;4821397;29;20050;-68
2020/12/08 11:34:51;;;;;;;4.22;2.65;;;;;;;;;;4824111;29;20155;-68
2020/12/08 11:37:18;;;;;;;5.32;3.60;;;;;;;;;;4823620;29;20047;-68
2020/12/08 11:39:44;;;;;;;4.35;3.10;;;;;;;;;;4824148;29;20058;-68
2020/12/08 11:42:13;;;;;;;4.85;3.35;;;;;;;;;;4823039;29;20051;-68
2020/12/08 11:44:42;;;;;;;6.18;3.22;;;;;;;;;;4818209;29;20057;-68
2020/12/08 11:47:10;;;;;;;4.97;3.38;;;;;;;;;;4820482;29;20046;-68
2020/12/08 11:49:37;;;;;;;3.63;2.50;;;;;;;;;;4823837;29;20050;-68
2020/12/08 11:52:05;;;;;;;7.13;2.53;;;;;;;;;;4823165;29;20587;-68
2020/12/08 11:54:32;;;;;;;2.72;2.15;;;;;;;;;;4823375;29;20047;-68
2020/12/08 11:56:58;;;;;;;3.75;2.70;;;;;;;;;;4823581;29;20137;-69
2020/12/08 11:59:25;;;;;;;4.43;2.90;;;;;;;;;;4823933;29;20054;-68
2020/12/08 12:01:51;;;;;;;5.13;3.00;;;;;;;;;;4821922;29;20054;-68
2020/12/08 12:04:18;;;;;;;3.65;2.30;;;;;;;;;;4823736;29;20069;-68
2020/12/08 12:06:44;;;;;;;3.15;2.22;;;;;;;;;;4824827;29;20042;-68
2020/12/08 12:09:10;;;;;;;3.50;2.53;;;;;;;;;;4823433;29;20046;-68
2020/12/08 12:11:37;;;;;;;4.13;2.40;;;;;;;;;;4821518;29;20054;-68
2020/12/08 12:14:03;;;;;;;4.13;2.67;;;;;;;;;;4813760;29;20085;-68
2020/12/08 12:16:30;;;;;;;4.70;2.85;;;;;;;;;;4822971;29;20049;-68
2020/12/08 12:18:57;;;;;;;4.82;2.88;;;;;;;;;;4822127;29;20510;-68
2020/12/08 12:21:23;;;;;;;4.50;2.85;;;;;;;;;;4822546;29;20042;-68
2020/12/08 12:23:49;;;;;;;3.85;2.67;;;;;;;;;;4823478;29;20126;-68
2020/12/08 12:26:19;;;;;;;5.35;3.05;;;;;;;;;;4823044;29;20479;-68
2020/12/08 12:28:45;;;;;;;3.58;2.78;;;;;;;;;;4823618;29;20054;-68
2020/12/08 12:31:12;;;;;;;4.35;2.78;;;;;;;;;;4821545;29;20046;-68
2020/12/08 12:33:38;;;;;;;3.72;2.88;;;;;;;;;;4818262;29;20133;-68
2020/12/08 12:36:05;;;;;;;4.68;2.92;;;;;;;;;;4822299;29;20550;-68
2020/12/08 12:38:31;;;;;;;4.88;2.90;;;;;;;;;;4823369;29;20053;-69
2020/12/08 12:40:58;;;;;;;4.25;3.00;;;;;;;;;;4822716;29;20505;-68
2020/12/08 12:43:25;;;;;;;4.40;3.42;;;;;;;;;;4823251;29;20054;-68
2020/12/08 12:45:51;;;;;;;5.43;3.63;;;;;;;;;;4823340;29;20050;-68
2020/12/08 12:48:18;;;;;;;4.20;3.17;;;;;;;;;;4819446;29;20042;-68
2020/12/08 12:50:44;;;;;;;4.57;2.95;;;;;;;;;;4820627;29;20062;-68
2020/12/08 12:53:10;;;;;;;5.47;3.00;;;;;;;;;;4822759;29;20054;-68
2020/12/08 12:55:38;;;;;;;6.53;3.65;;;;;;;;;;4824094;29;20069;-68
2020/12/08 12:58:04;;;;;;;5.57;3.10;;;;;;;;;;4821592;29;20070;-69
2020/12/08 13:00:31;;;;;;;4.82;3.20;;;;;;;;;;4820696;29;20038;-68
2020/12/08 13:02:57;;;;;;;5.15;3.53;;;;;;;;;;4820175;29;20050;-68
2020/12/08 13:05:23;;;;;;;5.30;3.53;;;;;;;;;;4823097;29;20555;-68
2020/12/08 13:07:50;;;;;;;5.07;3.40;;;;;;;;;;4822621;29;20074;-69
2020/12/08 13:10:17;;;;;;;5.00;3.20;;;;;;;;;;4822557;29;20046;-68
2020/12/08 13:12:43;;;;;;;6.97;3.25;;;;;;;;;;4819398;29;20500;-68
2020/12/08 13:15:09;;;;;;;4.00;2.75;;;;;;;;;;4822428;29;20439;-68
2020/12/08 13:17:36;;;;;;;5.90;3.40;;;;;;;;;;4822576;29;20053;-68
2020/12/08 13:20:03;;;;;;;4.95;3.38;;;;;;;;;;4822771;29;20058;-68
2020/12/08 13:22:29;;;;;;;5.28;3.70;;;;;;;;;;4822354;29;20054;-68
2020/12/08 13:24:55;;;;;;;5.75;4.45;;;;;;;;;;4821232;29;20047;-68
2020/12/08 13:27:22;;;;;;;6.55;4.38;;;;;;;;;;4822415;29;20042;-68
2020/12/08 13:29:48;;;;;;;7.75;4.63;;;;;;;;;;4822157;29;20050;-68
2020/12/08 13:32:15;;;;;;;6.10;4.13;;;;;;;;;;4816399;29;20448;-68
2020/12/08 13:34:42;;;;;;;7.35;4.75;;;;;;;;;;4821306;29;20046;-68
2020/12/08 13:37:08;;;;;;;4.78;3.42;;;;;;;;;;4822292;29;20054;-68
2020/12/08 13:39:34;;;;;;;6.90;4.68;;;;;;;;;;4822145;29;20051;-68
2020/12/08 13:42:00;;;;;;;10.52;4.45;;;;;;;;;;4822485;29;20054;-68
2020/12/08 13:44:27;;;;;;;6.32;4.22;;;;;;;;;;4822211;29;20046;-68
2020/12/08 13:46:57;;;;;;;9.02;4.30;;;;;;;;;;4820945;29;20062;-68
2020/12/08 13:49:24;;;;;;;6.78;4.18;;;;;;;;;;4822287;29;20129;-68
2020/12/08 13:51:50;;;;;;;5.38;3.15;;;;;;;;;;4822288;29;20046;-68
2020/12/08 13:54:16;;;;;;;7.13;4.60;;;;;;;;;;4821860;29;20403;-68
2020/12/08 13:56:43;;;;;;;6.05;4.35;;;;;;;;;;4820286;29;20057;-68
2020/12/08 13:59:13;;;;;;;6.53;4.65;;;;;;;;;;4820917;29;20513;-68
2020/12/08 14:01:45;;;;;;;8.98;4.68;;;;;;;;;;4820000;29;20081;-68
2020/12/08 14:04:13;;;;;;;9.48;5.45;;;;;;;;;;4820343;29;20415;-68
2020/12/08 14:06:43;;;;;;;7.15;5.07;;;;;;;;;;4821720;29;20514;-68
2020/12/08 14:09:09;;;;;;;8.27;5.13;;;;;;;;;;4821081;29;20187;-68
2020/12/08 14:11:36;;;;;;;7.25;4.68;;;;;;;;;;4821122;29;20053;-68
2020/12/08 14:14:02;;;;;;;7.03;4.57;;;;;;;;;;4820266;29;20050;-68
2020/12/08 14:16:29;;;;;;;7.13;4.93;;;;;;;;;;4821826;29;20047;-68
2020/12/08 14:18:55;;;;;;;6.60;4.73;;;;;;;;;;4821779;29;20058;-68
2020/12/08 14:21:22;;;;;;;6.20;4.35;;;;;;;;;;4821447;29;20153;-68
2020/12/08 14:23:48;;;;;;;8.15;4.78;;;;;;;;;;4821208;29;20444;-68
2020/12/08 14:26:19;;;;;;;7.70;4.68;;;;;;;;;;4825136;29;20054;-68